sensor_id;sensor_type;location;lat;lon;timestamp;P1;durP1;ratioP1;P2;durP2;ratioP2
4246;SDS011;2137;52.564;10.062;2022-08-01T00:00:15;3.85;;;3.00;;
4246;SDS011;2137;52.564;10.062;2022-08-01T00:00:32;3.92;;;3.03;;
4246;SDS011;2137;52.564;10.062;2022-08-01T00:00:49;4.25;;;3.10;;
4246;SDS011;2137;52.564;10.062;2022-08-01T00:01:06;4.57;;;3.10;;
4246;SDS011;2137;52.564;10.062;2022-08-01T00:01:22;5.53;;;3.17;;
4246;SDS011;2137;52.564;10.062;2022-08-01T00:01:39;5.78;;;3.15;;
4246;SDS011;2137;52.564;10.062;2022-08-01T00:01:56;4.35;;;3.28;;
4246;SDS011;2137;52.564;10.062;2022-08-01T00:02:12;3.97;;;3.08;;
4246;SDS011;2137;52.564;10.062;2022-08-01T00:02:30;3.70;;;2.95;;
4246;SDS011;2137;52.564;10.062;2022-08-01T00:02:47;6.53;;;3.13;;
4246;SDS011;2137;52.564;10.062;2022-08-01T00:03:04;3.72;;;3.25;;
4246;SDS011;2137;52.564;10.062;2022-08-01T00:03:21;3.50;;;3.00;;
4246;SDS011;2137;52.564;10.062;2022-08-01T00:03:37;4.82;;;3.05;;
4246;SDS011;2137;52.564;10.062;2022-08-01T00:03:55;4.35;;;3.15;;
4246;SDS011;2137;52.564;10.062;2022-08-01T00:04:11;3.75;;;2.92;;
4246;SDS011;2137;52.564;10.062;2022-08-01T00:04:28;3.90;;;3.00;;
4246;SDS011;2137;52.564;10.062;2022-08-01T00:04:44;4.03;;;3.08;;
4246;SDS011;2137;52.564;10.062;2022-08-01T00:05:01;4.57;;;2.70;;
4246;SDS011;2137;52.564;10.062;2022-08-01T00:05:19;3.00;;;2.53;;
4246;SDS011;2137;52.564;10.062;2022-08-01T00:05:35;3.30;;;3.00;;
4246;SDS011;2137;52.564;10.062;2022-08-01T00:05:52;3.50;;;3.20;;
4246;SDS011;2137;52.564;10.062;2022-08-01T00:06:09;3.72;;;3.33;;
4246;SDS011;2137;52.564;10.062;2022-08-01T00:06:25;3.63;;;3.20;;
4246;SDS011;2137;52.564;10.062;2022-08-01T00:06:43;2.80;;;2.60;;
4246;SDS011;2137;52.564;10.062;2022-08-01T00:07:00;3.22;;;2.92;;
4246;SDS011;2137;52.564;10.062;2022-08-01T00:07:16;3.58;;;3.17;;
4246;SDS011;2137;52.564;10.062;2022-08-01T00:07:33;3.28;;;2.97;;
4246;SDS011;2137;52.564;10.062;2022-08-01T00:07:50;3.42;;;2.95;;
4246;SDS011;2137;52.564;10.062;2022-08-01T00:08:08;3.47;;;2.67;;
4246;SDS011;2137;52.564;10.062;2022-08-01T00:08:25;4.10;;;2.97;;
4246;SDS011;2137;52.564;10.062;2022-08-01T00:08:42;4.22;;;3.40;;
4246;SDS011;2137;52.564;10.062;2022-08-01T00:08:59;4.43;;;3.40;;
4246;SDS011;2137;52.564;10.062;2022-08-01T00:09:16;3.97;;;3.22;;
4246;SDS011;2137;52.564;10.062;2022-08-01T00:09:39;3.20;;;2.90;;
4246;SDS011;2137;52.564;10.062;2022-08-01T00:09:56;2.88;;;2.67;;
4246;SDS011;2137;52.564;10.062;2022-08-01T00:10:14;2.80;;;2.60;;
4246;SDS011;2137;52.564;10.062;2022-08-01T00:10:31;3.22;;;2.92;;
4246;SDS011;2137;52.564;10.062;2022-08-01T00:10:51;4.35;;;2.83;;
4246;SDS011;2137;52.564;10.062;2022-08-01T00:11:09;4.57;;;2.97;;
4246;SDS011;2137;52.564;10.062;2022-08-01T00:11:25;3.78;;;3.22;;
4246;SDS011;2137;52.564;10.062;2022-08-01T00:11:42;3.78;;;3.00;;
4246;SDS011;2137;52.564;10.062;2022-08-01T00:11:59;3.30;;;2.90;;
4246;SDS011;2137;52.564;10.062;2022-08-01T00:12:16;3.05;;;2.75;;
4246;SDS011;2137;52.564;10.062;2022-08-01T00:12:33;6.10;;;2.70;;
4246;SDS011;2137;52.564;10.062;2022-08-01T00:12:51;7.57;;;2.90;;
4246;SDS011;2137;52.564;10.062;2022-08-01T00:13:08;4.57;;;2.72;;
4246;SDS011;2137;52.564;10.062;2022-08-01T00:13:25;3.80;;;3.08;;
4246;SDS011;2137;52.564;10.062;2022-08-01T00:13:42;3.10;;;2.83;;
4246;SDS011;2137;52.564;10.062;2022-08-01T00:13:59;6.10;;;2.67;;
4246;SDS011;2137;52.564;10.062;2022-08-01T00:14:16;5.68;;;2.55;;
4246;SDS011;2137;52.564;10.062;2022-08-01T00:14:33;3.28;;;2.80;;
4246;SDS011;2137;52.564;10.062;2022-08-01T00:14:49;3.90;;;3.20;;
4246;SDS011;2137;52.564;10.062;2022-08-01T00:15:07;3.40;;;2.97;;
4246;SDS011;2137;52.564;10.062;2022-08-01T00:15:24;3.30;;;3.00;;
4246;SDS011;2137;52.564;10.062;2022-08-01T00:15:41;3.60;;;3.25;;
4246;SDS011;2137;52.564;10.062;2022-08-01T00:16:09;3.28;;;2.75;;
4246;SDS011;2137;52.564;10.062;2022-08-01T00:16:26;3.90;;;2.65;;
4246;SDS011;2137;52.564;10.062;2022-08-01T00:16:43;3.60;;;2.80;;
4246;SDS011;2137;52.564;10.062;2022-08-01T00:17:00;4.22;;;2.80;;
4246;SDS011;2137;52.564;10.062;2022-08-01T00:17:22;6.20;;;3.00;;
4246;SDS011;2137;52.564;10.062;2022-08-01T00:17:39;3.70;;;2.65;;
4246;SDS011;2137;52.564;10.062;2022-08-01T00:17:56;3.10;;;2.50;;
4246;SDS011;2137;52.564;10.062;2022-08-01T00:18:14;4.35;;;3.05;;
4246;SDS011;2137;52.564;10.062;2022-08-01T00:18:30;5.15;;;3.40;;
4246;SDS011;2137;52.564;10.062;2022-08-01T00:18:47;3.40;;;2.75;;
4246;SDS011;2137;52.564;10.062;2022-08-01T00:19:04;3.45;;;2.63;;
4246;SDS011;2137;52.564;10.062;2022-08-01T00:19:21;4.45;;;3.00;;
4246;SDS011;2137;52.564;10.062;2022-08-01T00:19:38;3.97;;;2.55;;
4246;SDS011;2137;52.564;10.062;2022-08-01T00:19:55;2.95;;;2.60;;
4246;SDS011;2137;52.564;10.062;2022-08-01T00:20:12;3.33;;;3.03;;
4246;SDS011;2137;52.564;10.062;2022-08-01T00:20:29;3.40;;;2.90;;
4246;SDS011;2137;52.564;10.062;2022-08-01T00:20:45;3.70;;;2.70;;
4246;SDS011;2137;52.564;10.062;2022-08-01T00:21:02;2.95;;;2.60;;
4246;SDS011;2137;52.564;10.062;2022-08-01T00:21:20;3.35;;;2.90;;
4246;SDS011;2137;52.564;10.062;2022-08-01T00:21:36;2.95;;;2.70;;
4246;SDS011;2137;52.564;10.062;2022-08-01T00:22:07;3.70;;;3.10;;
4246;SDS011;2137;52.564;10.062;2022-08-01T00:22:25;2.45;;;2.22;;
4246;SDS011;2137;52.564;10.062;2022-08-01T00:22:42;5.57;;;2.67;;
4246;SDS011;2137;52.564;10.062;2022-08-01T00:22:59;4.93;;;2.70;;
4246;SDS011;2137;52.564;10.062;2022-08-01T00:23:17;5.05;;;2.70;;
4246;SDS011;2137;52.564;10.062;2022-08-01T00:23:34;5.13;;;2.80;;
4246;SDS011;2137;52.564;10.062;2022-08-01T00:23:50;3.70;;;3.05;;
4246;SDS011;2137;52.564;10.062;2022-08-01T00:24:08;3.65;;;2.83;;
4246;SDS011;2137;52.564;10.062;2022-08-01T00:24:30;3.38;;;2.63;;
4246;SDS011;2137;52.564;10.062;2022-08-01T00:24:47;2.63;;;2.42;;
4246;SDS011;2137;52.564;10.062;2022-08-01T00:25:04;3.30;;;2.70;;
4246;SDS011;2137;52.564;10.062;2022-08-01T00:25:21;3.10;;;2.80;;
4246;SDS011;2137;52.564;10.062;2022-08-01T00:25:50;3.10;;;2.80;;
4246;SDS011;2137;52.564;10.062;2022-08-01T00:26:06;3.80;;;2.42;;
4246;SDS011;2137;52.564;10.062;2022-08-01T00:26:23;3.85;;;2.35;;
4246;SDS011;2137;52.564;10.062;2022-08-01T00:26:39;3.28;;;2.97;;
4246;SDS011;2137;52.564;10.062;2022-08-01T00:26:56;3.38;;;3.08;;
4246;SDS011;2137;52.564;10.062;2022-08-01T00:27:13;3.10;;;2.60;;
4246;SDS011;2137;52.564;10.062;2022-08-01T00:27:30;3.10;;;2.75;;
4246;SDS011;2137;52.564;10.062;2022-08-01T00:27:53;2.92;;;2.63;;
4246;SDS011;2137;52.564;10.062;2022-08-01T00:28:10;2.65;;;2.42;;
4246;SDS011;2137;52.564;10.062;2022-08-01T00:28:27;2.58;;;2.38;;
4246;SDS011;2137;52.564;10.062;2022-08-01T00:28:45;3.47;;;3.05;;
4246;SDS011;2137;52.564;10.062;2022-08-01T00:29:01;3.53;;;2.90;;
4246;SDS011;2137;52.564;10.062;2022-08-01T00:29:26;3.35;;;2.83;;
4246;SDS011;2137;52.564;10.062;2022-08-01T00:30:04;2.78;;;2.55;;
4246;SDS011;2137;52.564;10.062;2022-08-01T00:30:28;3.78;;;2.75;;
4246;SDS011;2137;52.564;10.062;2022-08-01T00:30:44;4.80;;;2.67;;
4246;SDS011;2137;52.564;10.062;2022-08-01T00:31:02;3.92;;;2.60;;
4246;SDS011;2137;52.564;10.062;2022-08-01T00:31:18;4.07;;;2.58;;
4246;SDS011;2137;52.564;10.062;2022-08-01T00:31:36;3.63;;;3.25;;
4246;SDS011;2137;52.564;10.062;2022-08-01T00:31:53;5.96;;;3.52;;
4246;SDS011;2137;52.564;10.062;2022-08-01T00:32:11;4.55;;;3.10;;
4246;SDS011;2137;52.564;10.062;2022-08-01T00:32:29;2.78;;;2.58;;
4246;SDS011;2137;52.564;10.062;2022-08-01T00:32:46;2.66;;;2.46;;
4246;SDS011;2137;52.564;10.062;2022-08-01T00:33:02;3.10;;;2.53;;
4246;SDS011;2137;52.564;10.062;2022-08-01T00:33:19;3.28;;;2.50;;
4246;SDS011;2137;52.564;10.062;2022-08-01T00:33:35;3.86;;;2.80;;
4246;SDS011;2137;52.564;10.062;2022-08-01T00:33:55;3.15;;;2.85;;
4246;SDS011;2137;52.564;10.062;2022-08-01T00:34:12;3.00;;;2.45;;
4246;SDS011;2137;52.564;10.062;2022-08-01T00:34:28;2.82;;;2.24;;
4246;SDS011;2137;52.564;10.062;2022-08-01T00:34:45;3.92;;;2.33;;
4246;SDS011;2137;52.564;10.062;2022-08-01T00:35:02;3.92;;;2.70;;
4246;SDS011;2137;52.564;10.062;2022-08-01T00:35:19;2.95;;;2.63;;
4246;SDS011;2137;52.564;10.062;2022-08-01T00:35:36;2.53;;;2.33;;
4246;SDS011;2137;52.564;10.062;2022-08-01T00:35:52;3.05;;;2.60;;
4246;SDS011;2137;52.564;10.062;2022-08-01T00:36:09;2.92;;;2.58;;
4246;SDS011;2137;52.564;10.062;2022-08-01T00:36:25;4.42;;;2.32;;
4246;SDS011;2137;52.564;10.062;2022-08-01T00:36:43;6.05;;;2.42;;
4246;SDS011;2137;52.564;10.062;2022-08-01T00:37:00;3.42;;;2.17;;
4246;SDS011;2137;52.564;10.062;2022-08-01T00:37:16;3.85;;;2.55;;
4246;SDS011;2137;52.564;10.062;2022-08-01T00:37:33;3.50;;;2.50;;
4246;SDS011;2137;52.564;10.062;2022-08-01T00:37:50;2.72;;;2.53;;
4246;SDS011;2137;52.564;10.062;2022-08-01T00:38:07;3.28;;;2.80;;
4246;SDS011;2137;52.564;10.062;2022-08-01T00:38:25;3.13;;;2.35;;
4246;SDS011;2137;52.564;10.062;2022-08-01T00:38:42;2.85;;;2.40;;
4246;SDS011;2137;52.564;10.062;2022-08-01T00:38:58;2.65;;;2.45;;
4246;SDS011;2137;52.564;10.062;2022-08-01T00:39:15;2.50;;;2.30;;
4246;SDS011;2137;52.564;10.062;2022-08-01T00:39:32;2.70;;;2.13;;
4246;SDS011;2137;52.564;10.062;2022-08-01T00:39:49;4.47;;;2.08;;
4246;SDS011;2137;52.564;10.062;2022-08-01T00:40:06;4.22;;;2.55;;
4246;SDS011;2137;52.564;10.062;2022-08-01T00:40:23;3.55;;;2.80;;
4246;SDS011;2137;52.564;10.062;2022-08-01T00:40:40;4.00;;;2.50;;
4246;SDS011;2137;52.564;10.062;2022-08-01T00:40:56;2.97;;;2.28;;
4246;SDS011;2137;52.564;10.062;2022-08-01T00:41:14;2.60;;;2.40;;
4246;SDS011;2137;52.564;10.062;2022-08-01T00:41:31;2.72;;;2.53;;
4246;SDS011;2137;52.564;10.062;2022-08-01T00:41:47;2.20;;;2.00;;
4246;SDS011;2137;52.564;10.062;2022-08-01T00:42:14;7.92;;;2.24;;
4246;SDS011;2137;52.564;10.062;2022-08-01T00:42:32;2.47;;;2.28;;
4246;SDS011;2137;52.564;10.062;2022-08-01T00:42:48;2.65;;;2.45;;
4246;SDS011;2137;52.564;10.062;2022-08-01T00:43:06;2.90;;;2.42;;
4246;SDS011;2137;52.564;10.062;2022-08-01T00:43:23;3.47;;;2.33;;
4246;SDS011;2137;52.564;10.062;2022-08-01T00:43:40;2.95;;;2.33;;
4246;SDS011;2137;52.564;10.062;2022-08-01T00:43:57;2.70;;;2.40;;
4246;SDS011;2137;52.564;10.062;2022-08-01T00:44:14;3.83;;;2.58;;
4246;SDS011;2137;52.564;10.062;2022-08-01T00:44:30;5.00;;;2.50;;
4246;SDS011;2137;52.564;10.062;2022-08-01T00:44:47;3.58;;;2.13;;
4246;SDS011;2137;52.564;10.062;2022-08-01T00:45:04;2.38;;;2.15;;
4246;SDS011;2137;52.564;10.062;2022-08-01T00:45:21;2.33;;;2.13;;
4246;SDS011;2137;52.564;10.062;2022-08-01T00:45:38;2.28;;;2.08;;
4246;SDS011;2137;52.564;10.062;2022-08-01T00:45:55;2.42;;;2.17;;
4246;SDS011;2137;52.564;10.062;2022-08-01T00:46:12;3.10;;;2.25;;
4246;SDS011;2137;52.564;10.062;2022-08-01T00:46:28;3.13;;;2.22;;
4246;SDS011;2137;52.564;10.062;2022-08-01T00:46:46;2.72;;;2.25;;
4246;SDS011;2137;52.564;10.062;2022-08-01T00:47:03;3.42;;;2.13;;
4246;SDS011;2137;52.564;10.062;2022-08-01T00:47:20;2.85;;;1.80;;
4246;SDS011;2137;52.564;10.062;2022-08-01T00:47:37;2.30;;;1.70;;
4246;SDS011;2137;52.564;10.062;2022-08-01T00:47:54;2.10;;;1.88;;
4246;SDS011;2137;52.564;10.062;2022-08-01T00:48:10;2.03;;;1.83;;
4246;SDS011;2137;52.564;10.062;2022-08-01T00:48:28;2.33;;;2.03;;
4246;SDS011;2137;52.564;10.062;2022-08-01T00:48:45;2.10;;;1.90;;
4246;SDS011;2137;52.564;10.062;2022-08-01T00:49:02;3.53;;;1.85;;
4246;SDS011;2137;52.564;10.062;2022-08-01T00:49:19;4.00;;;2.08;;
4246;SDS011;2137;52.564;10.062;2022-08-01T00:49:35;1.77;;;1.67;;
4246;SDS011;2137;52.564;10.062;2022-08-01T00:49:52;1.92;;;1.80;;
4246;SDS011;2137;52.564;10.062;2022-08-01T00:50:10;2.15;;;1.95;;
4246;SDS011;2137;52.564;10.062;2022-08-01T00:50:27;2.05;;;1.85;;
4246;SDS011;2137;52.564;10.062;2022-08-01T00:50:44;2.50;;;1.80;;
4246;SDS011;2137;52.564;10.062;2022-08-01T00:51:01;3.08;;;1.90;;
4246;SDS011;2137;52.564;10.062;2022-08-01T00:51:18;2.25;;;1.85;;
4246;SDS011;2137;52.564;10.062;2022-08-01T00:51:35;3.90;;;1.77;;
4246;SDS011;2137;52.564;10.062;2022-08-01T00:51:52;4.50;;;1.80;;
4246;SDS011;2137;52.564;10.062;2022-08-01T00:52:08;2.25;;;1.80;;
4246;SDS011;2137;52.564;10.062;2022-08-01T00:52:26;2.20;;;2.00;;
4246;SDS011;2137;52.564;10.062;2022-08-01T00:52:42;2.05;;;1.92;;
4246;SDS011;2137;52.564;10.062;2022-08-01T00:53:07;2.33;;;1.77;;
4246;SDS011;2137;52.564;10.062;2022-08-01T00:53:34;1.70;;;1.50;;
4246;SDS011;2137;52.564;10.062;2022-08-01T00:54:07;1.58;;;1.48;;
4246;SDS011;2137;52.564;10.062;2022-08-01T00:54:28;2.05;;;1.60;;
4246;SDS011;2137;52.564;10.062;2022-08-01T00:54:46;2.45;;;1.77;;
4246;SDS011;2137;52.564;10.062;2022-08-01T00:55:02;2.60;;;1.77;;
4246;SDS011;2137;52.564;10.062;2022-08-01T00:55:19;1.60;;;1.45;;
4246;SDS011;2137;52.564;10.062;2022-08-01T00:55:36;1.67;;;1.58;;
4246;SDS011;2137;52.564;10.062;2022-08-01T00:55:53;1.60;;;1.50;;
4246;SDS011;2137;52.564;10.062;2022-08-01T00:56:09;2.13;;;1.20;;
4246;SDS011;2137;52.564;10.062;2022-08-01T00:56:27;1.85;;;1.30;;
4246;SDS011;2137;52.564;10.062;2022-08-01T00:56:44;2.22;;;1.70;;
4246;SDS011;2137;52.564;10.062;2022-08-01T00:57:01;1.83;;;1.60;;
4246;SDS011;2137;52.564;10.062;2022-08-01T00:57:18;1.65;;;1.55;;
4246;SDS011;2137;52.564;10.062;2022-08-01T00:57:55;2.55;;;1.35;;
4246;SDS011;2137;52.564;10.062;2022-08-01T00:58:22;1.70;;;1.60;;
4246;SDS011;2137;52.564;10.062;2022-08-01T00:58:39;1.52;;;1.42;;
4246;SDS011;2137;52.564;10.062;2022-08-01T00:58:56;2.00;;;1.52;;
4246;SDS011;2137;52.564;10.062;2022-08-01T00:59:14;1.88;;;1.27;;
4246;SDS011;2137;52.564;10.062;2022-08-01T00:59:35;1.52;;;1.35;;
4246;SDS011;2137;52.564;10.062;2022-08-01T00:59:52;1.88;;;1.70;;
4246;SDS011;2137;52.564;10.062;2022-08-01T01:00:10;1.98;;;1.38;;
4246;SDS011;2137;52.564;10.062;2022-08-01T01:00:27;1.65;;;1.30;;
4246;SDS011;2137;52.564;10.062;2022-08-01T01:00:45;3.65;;;1.63;;
4246;SDS011;2137;52.564;10.062;2022-08-01T01:01:08;1.65;;;1.55;;
4246;SDS011;2137;52.564;10.062;2022-08-01T01:01:28;1.88;;;1.13;;
4246;SDS011;2137;52.564;10.062;2022-08-01T01:01:55;1.48;;;1.35;;
4246;SDS011;2137;52.564;10.062;2022-08-01T01:02:12;1.90;;;1.45;;
4246;SDS011;2137;52.564;10.062;2022-08-01T01:02:31;1.80;;;1.50;;
4246;SDS011;2137;52.564;10.062;2022-08-01T01:02:48;2.17;;;1.40;;
4246;SDS011;2137;52.564;10.062;2022-08-01T01:03:04;3.13;;;1.38;;
4246;SDS011;2137;52.564;10.062;2022-08-01T01:03:21;2.10;;;1.23;;
4246;SDS011;2137;52.564;10.062;2022-08-01T01:03:59;1.50;;;1.38;;
4246;SDS011;2137;52.564;10.062;2022-08-01T01:04:16;1.67;;;1.50;;
4246;SDS011;2137;52.564;10.062;2022-08-01T01:04:33;1.90;;;1.55;;
4246;SDS011;2137;52.564;10.062;2022-08-01T01:04:49;2.13;;;1.65;;
4246;SDS011;2137;52.564;10.062;2022-08-01T01:05:07;4.30;;;1.70;;
4246;SDS011;2137;52.564;10.062;2022-08-01T01:05:24;4.18;;;1.50;;
4246;SDS011;2137;52.564;10.062;2022-08-01T01:05:45;1.83;;;1.27;;
4246;SDS011;2137;52.564;10.062;2022-08-01T01:06:11;1.98;;;1.48;;
4246;SDS011;2137;52.564;10.062;2022-08-01T01:06:31;1.40;;;1.30;;
4246;SDS011;2137;52.564;10.062;2022-08-01T01:06:55;1.92;;;1.17;;
4246;SDS011;2137;52.564;10.062;2022-08-01T01:07:15;1.98;;;1.20;;
4246;SDS011;2137;52.564;10.062;2022-08-01T01:07:34;2.05;;;1.30;;
4246;SDS011;2137;52.564;10.062;2022-08-01T01:08:07;2.35;;;1.63;;
4246;SDS011;2137;52.564;10.062;2022-08-01T01:08:26;2.58;;;1.85;;
4246;SDS011;2137;52.564;10.062;2022-08-01T01:08:50;1.63;;;1.40;;
4246;SDS011;2137;52.564;10.062;2022-08-01T01:09:16;1.80;;;1.25;;
4246;SDS011;2137;52.564;10.062;2022-08-01T01:09:34;1.52;;;1.42;;
4246;SDS011;2137;52.564;10.062;2022-08-01T01:09:56;3.13;;;1.38;;
4246;SDS011;2137;52.564;10.062;2022-08-01T01:10:15;2.50;;;1.30;;
4246;SDS011;2137;52.564;10.062;2022-08-01T01:10:35;1.90;;;1.55;;
4246;SDS011;2137;52.564;10.062;2022-08-01T01:10:54;1.65;;;1.42;;
4246;SDS011;2137;52.564;10.062;2022-08-01T01:11:13;1.45;;;1.35;;
4246;SDS011;2137;52.564;10.062;2022-08-01T01:11:35;1.65;;;1.55;;
4246;SDS011;2137;52.564;10.062;2022-08-01T01:11:57;4.07;;;1.60;;
4246;SDS011;2137;52.564;10.062;2022-08-01T01:12:16;4.13;;;1.35;;
4246;SDS011;2137;52.564;10.062;2022-08-01T01:12:34;1.58;;;1.42;;
4246;SDS011;2137;52.564;10.062;2022-08-01T01:12:55;1.60;;;1.50;;
4246;SDS011;2137;52.564;10.062;2022-08-01T01:13:18;2.15;;;1.65;;
4246;SDS011;2137;52.564;10.062;2022-08-01T01:13:38;2.80;;;1.60;;
4246;SDS011;2137;52.564;10.062;2022-08-01T01:14:08;2.46;;;1.56;;
4246;SDS011;2137;52.564;10.062;2022-08-01T01:14:27;3.13;;;1.52;;
4246;SDS011;2137;52.564;10.062;2022-08-01T01:14:51;2.25;;;1.52;;
4246;SDS011;2137;52.564;10.062;2022-08-01T01:15:10;1.75;;;1.63;;
4246;SDS011;2137;52.564;10.062;2022-08-01T01:15:30;1.58;;;1.48;;
4246;SDS011;2137;52.564;10.062;2022-08-01T01:15:49;2.00;;;1.50;;
4246;SDS011;2137;52.564;10.062;2022-08-01T01:16:08;2.36;;;1.64;;
4246;SDS011;2137;52.564;10.062;2022-08-01T01:16:27;1.88;;;1.67;;
4246;SDS011;2137;52.564;10.062;2022-08-01T01:16:45;1.70;;;1.40;;
4246;SDS011;2137;52.564;10.062;2022-08-01T01:17:03;2.25;;;1.55;;
4246;SDS011;2137;52.564;10.062;2022-08-01T01:17:24;2.10;;;1.60;;
4246;SDS011;2137;52.564;10.062;2022-08-01T01:18:03;3.28;;;1.40;;
4246;SDS011;2137;52.564;10.062;2022-08-01T01:18:23;1.50;;;1.40;;
4246;SDS011;2137;52.564;10.062;2022-08-01T01:18:42;2.88;;;1.70;;
4246;SDS011;2137;52.564;10.062;2022-08-01T01:19:00;3.40;;;1.80;;
4246;SDS011;2137;52.564;10.062;2022-08-01T01:19:21;2.38;;;1.73;;
4246;SDS011;2137;52.564;10.062;2022-08-01T01:19:41;2.10;;;1.52;;
4246;SDS011;2137;52.564;10.062;2022-08-01T01:20:00;1.73;;;1.60;;
4246;SDS011;2137;52.564;10.062;2022-08-01T01:20:20;2.10;;;1.85;;
4246;SDS011;2137;52.564;10.062;2022-08-01T01:20:39;1.55;;;1.45;;
4246;SDS011;2137;52.564;10.062;2022-08-01T01:20:57;1.67;;;1.58;;
4246;SDS011;2137;52.564;10.062;2022-08-01T01:22:39;3.15;;;2.15;;
4246;SDS011;2137;52.564;10.062;2022-08-01T01:23:19;2.47;;;1.70;;
4246;SDS011;2137;52.564;10.062;2022-08-01T01:23:44;3.03;;;2.35;;
4246;SDS011;2137;52.564;10.062;2022-08-01T01:24:04;2.75;;;1.95;;
4246;SDS011;2137;52.564;10.062;2022-08-01T01:24:28;2.47;;;2.05;;
4246;SDS011;2137;52.564;10.062;2022-08-01T01:24:50;2.10;;;1.90;;
4246;SDS011;2137;52.564;10.062;2022-08-01T01:25:32;4.90;;;2.17;;
4246;SDS011;2137;52.564;10.062;2022-08-01T01:26:06;2.42;;;2.03;;
4246;SDS011;2137;52.564;10.062;2022-08-01T01:26:31;2.47;;;2.22;;
4246;SDS011;2137;52.564;10.062;2022-08-01T01:26:54;2.30;;;1.67;;
4246;SDS011;2137;52.564;10.062;2022-08-01T01:27:17;2.47;;;1.67;;
4246;SDS011;2137;52.564;10.062;2022-08-01T01:27:39;2.00;;;1.77;;
4246;SDS011;2137;52.564;10.062;2022-08-01T01:28:02;1.77;;;1.67;;
4246;SDS011;2137;52.564;10.062;2022-08-01T01:28:23;1.58;;;1.48;;
4246;SDS011;2137;52.564;10.062;2022-08-01T01:29:27;2.22;;;1.70;;
4246;SDS011;2137;52.564;10.062;2022-08-01T01:30:05;2.35;;;1.92;;
4246;SDS011;2137;52.564;10.062;2022-08-01T01:30:22;2.10;;;1.90;;
4246;SDS011;2137;52.564;10.062;2022-08-01T01:30:41;2.40;;;2.13;;
4246;SDS011;2137;52.564;10.062;2022-08-01T01:30:58;2.25;;;1.80;;
4246;SDS011;2137;52.564;10.062;2022-08-01T01:31:17;2.90;;;2.15;;
4246;SDS011;2137;52.564;10.062;2022-08-01T01:31:36;3.17;;;2.40;;
4246;SDS011;2137;52.564;10.062;2022-08-01T01:31:57;2.65;;;2.05;;
4246;SDS011;2137;52.564;10.062;2022-08-01T01:32:18;2.63;;;1.90;;
4246;SDS011;2137;52.564;10.062;2022-08-01T01:32:44;2.95;;;1.52;;
4246;SDS011;2137;52.564;10.062;2022-08-01T01:33:05;2.67;;;1.75;;
4246;SDS011;2137;52.564;10.062;2022-08-01T01:33:23;2.90;;;2.20;;
4246;SDS011;2137;52.564;10.062;2022-08-01T01:33:41;2.70;;;1.90;;
4246;SDS011;2137;52.564;10.062;2022-08-01T01:34:02;2.63;;;2.00;;
4246;SDS011;2137;52.564;10.062;2022-08-01T01:34:21;2.95;;;2.08;;
4246;SDS011;2137;52.564;10.062;2022-08-01T01:34:40;2.10;;;1.90;;
4246;SDS011;2137;52.564;10.062;2022-08-01T01:34:59;2.05;;;1.85;;
4246;SDS011;2137;52.564;10.062;2022-08-01T01:35:20;2.40;;;2.15;;
4246;SDS011;2137;52.564;10.062;2022-08-01T01:35:40;2.20;;;1.95;;
4246;SDS011;2137;52.564;10.062;2022-08-01T01:35:59;3.00;;;2.17;;
4246;SDS011;2137;52.564;10.062;2022-08-01T01:36:19;3.78;;;2.40;;
4246;SDS011;2137;52.564;10.062;2022-08-01T01:36:36;2.75;;;2.10;;
4246;SDS011;2137;52.564;10.062;2022-08-01T01:36:54;2.45;;;1.80;;
4246;SDS011;2137;52.564;10.062;2022-08-01T01:37:12;2.85;;;1.95;;
4246;SDS011;2137;52.564;10.062;2022-08-01T01:37:30;2.65;;;2.20;;
4246;SDS011;2137;52.564;10.062;2022-08-01T01:37:49;2.20;;;2.00;;
4246;SDS011;2137;52.564;10.062;2022-08-01T01:38:09;2.28;;;2.08;;
4246;SDS011;2137;52.564;10.062;2022-08-01T01:38:28;2.13;;;1.92;;
4246;SDS011;2137;52.564;10.062;2022-08-01T01:38:46;2.33;;;2.13;;
4246;SDS011;2137;52.564;10.062;2022-08-01T01:39:03;2.67;;;2.42;;
4246;SDS011;2137;52.564;10.062;2022-08-01T01:39:20;2.50;;;2.00;;
4246;SDS011;2137;52.564;10.062;2022-08-01T01:39:39;2.28;;;1.80;;
4246;SDS011;2137;52.564;10.062;2022-08-01T01:40:00;2.95;;;1.63;;
4246;SDS011;2137;52.564;10.062;2022-08-01T01:40:19;4.10;;;2.00;;
4246;SDS011;2137;52.564;10.062;2022-08-01T01:40:36;3.08;;;2.13;;
4246;SDS011;2137;52.564;10.062;2022-08-01T01:40:54;2.50;;;2.10;;
4246;SDS011;2137;52.564;10.062;2022-08-01T01:41:14;3.85;;;2.20;;
4246;SDS011;2137;52.564;10.062;2022-08-01T01:41:32;3.42;;;2.03;;
4246;SDS011;2137;52.564;10.062;2022-08-01T01:41:49;2.03;;;1.80;;
4246;SDS011;2137;52.564;10.062;2022-08-01T01:42:06;2.70;;;1.75;;
4246;SDS011;2137;52.564;10.062;2022-08-01T01:42:28;4.63;;;2.05;;
4246;SDS011;2137;52.564;10.062;2022-08-01T01:42:46;3.22;;;2.30;;
4246;SDS011;2137;52.564;10.062;2022-08-01T01:43:02;3.05;;;2.53;;
4246;SDS011;2137;52.564;10.062;2022-08-01T01:43:19;2.83;;;2.60;;
4246;SDS011;2137;52.564;10.062;2022-08-01T01:43:44;2.46;;;2.00;;
4246;SDS011;2137;52.564;10.062;2022-08-01T01:44:03;3.28;;;2.25;;
4246;SDS011;2137;52.564;10.062;2022-08-01T01:44:20;3.65;;;2.28;;
4246;SDS011;2137;52.564;10.062;2022-08-01T01:44:38;2.00;;;1.70;;
4246;SDS011;2137;52.564;10.062;2022-08-01T01:44:55;2.35;;;1.98;;
4246;SDS011;2137;52.564;10.062;2022-08-01T01:45:12;3.50;;;2.33;;
4246;SDS011;2137;52.564;10.062;2022-08-01T01:45:29;2.75;;;2.40;;
4246;SDS011;2137;52.564;10.062;2022-08-01T01:45:48;2.17;;;2.00;;
4246;SDS011;2137;52.564;10.062;2022-08-01T01:46:09;3.00;;;2.10;;
4246;SDS011;2137;52.564;10.062;2022-08-01T01:46:25;5.25;;;2.45;;
4246;SDS011;2137;52.564;10.062;2022-08-01T01:46:43;2.28;;;2.08;;
4246;SDS011;2137;52.564;10.062;2022-08-01T01:47:00;2.40;;;2.20;;
4246;SDS011;2137;52.564;10.062;2022-08-01T01:47:20;2.38;;;2.00;;
4246;SDS011;2137;52.564;10.062;2022-08-01T01:47:38;2.85;;;2.10;;
4246;SDS011;2137;52.564;10.062;2022-08-01T01:47:56;2.67;;;2.13;;
4246;SDS011;2137;52.564;10.062;2022-08-01T01:48:13;3.97;;;2.70;;
4246;SDS011;2137;52.564;10.062;2022-08-01T01:48:31;4.45;;;2.40;;
4246;SDS011;2137;52.564;10.062;2022-08-01T01:48:48;3.65;;;2.35;;
4246;SDS011;2137;52.564;10.062;2022-08-01T01:49:07;3.92;;;2.03;;
4246;SDS011;2137;52.564;10.062;2022-08-01T01:49:26;3.08;;;2.28;;
4246;SDS011;2137;52.564;10.062;2022-08-01T01:49:44;4.90;;;2.38;;
4246;SDS011;2137;52.564;10.062;2022-08-01T01:50:02;4.63;;;2.22;;
4246;SDS011;2137;52.564;10.062;2022-08-01T01:50:20;2.53;;;2.17;;
4246;SDS011;2137;52.564;10.062;2022-08-01T01:50:37;3.08;;;2.17;;
4246;SDS011;2137;52.564;10.062;2022-08-01T01:50:53;2.63;;;2.35;;
4246;SDS011;2137;52.564;10.062;2022-08-01T01:51:12;3.30;;;2.38;;
4246;SDS011;2137;52.564;10.062;2022-08-01T01:51:30;3.45;;;2.22;;
4246;SDS011;2137;52.564;10.062;2022-08-01T01:51:47;3.03;;;2.55;;
4246;SDS011;2137;52.564;10.062;2022-08-01T01:52:18;3.35;;;2.33;;
4246;SDS011;2137;52.564;10.062;2022-08-01T01:52:35;2.50;;;2.25;;
4246;SDS011;2137;52.564;10.062;2022-08-01T01:52:51;3.10;;;2.50;;
4246;SDS011;2137;52.564;10.062;2022-08-01T01:53:12;3.33;;;2.60;;
4246;SDS011;2137;52.564;10.062;2022-08-01T01:53:31;2.80;;;2.60;;
4246;SDS011;2137;52.564;10.062;2022-08-01T01:53:48;3.90;;;2.45;;
4246;SDS011;2137;52.564;10.062;2022-08-01T01:54:06;3.53;;;2.28;;
4246;SDS011;2137;52.564;10.062;2022-08-01T01:54:24;2.63;;;2.42;;
4246;SDS011;2137;52.564;10.062;2022-08-01T01:54:44;3.20;;;2.63;;
4246;SDS011;2137;52.564;10.062;2022-08-01T01:55:04;3.50;;;2.78;;
4246;SDS011;2137;52.564;10.062;2022-08-01T01:55:22;3.05;;;2.47;;
4246;SDS011;2137;52.564;10.062;2022-08-01T01:55:40;2.53;;;2.20;;
4246;SDS011;2137;52.564;10.062;2022-08-01T01:56:05;4.10;;;2.47;;
4246;SDS011;2137;52.564;10.062;2022-08-01T01:56:22;4.00;;;2.50;;
4246;SDS011;2137;52.564;10.062;2022-08-01T01:56:39;3.70;;;2.60;;
4246;SDS011;2137;52.564;10.062;2022-08-01T01:57:04;2.78;;;2.50;;
4246;SDS011;2137;52.564;10.062;2022-08-01T01:57:23;3.00;;;2.70;;
4246;SDS011;2137;52.564;10.062;2022-08-01T01:57:40;4.10;;;2.70;;
4246;SDS011;2137;52.564;10.062;2022-08-01T01:57:57;5.60;;;2.80;;